Time,TemperatureF,DewpointF,PressureIn,WindDirection,WindDirectionDegrees,WindSpeedMPH,WindSpeedGustMPH,Humidity,HourlyPrecipIn,Conditions,Clouds,dailyrainin,SoftwareType,DateUTC
2013-03-04 00:00:00,22.1,17.2,29.67,West,270,11.5,11.5,81,0.00,OVC,,0.00,WeatherDisplay:10.37,2013-03-04 05:00:00,
2013-03-04 00:01:00,21.9,18.4,29.67,West,270,12.7,12.7,86,0.00,OVC,,0.00,WeatherDisplay:10.37,2013-03-04 05:01:00,
2013-03-04 00:06:00,22.0,17.3,29.67,NW,315,10.4,10.4,82,0.00,OVC,,0.00,WeatherDisplay:10.37,2013-03-04 05:06:00,
2013-03-04 00:08:00,21.7,17.1,29.67,WNW,292,11.5,11.5,82,0.00,OVC,,0.00,WeatherDisplay:10.37,2013-03-04 05:08:00,
2013-03-04 00:13:00,21.8,17.1,29.67,NNW,338,12.7,12.7,82,0.00,OVC,,0.00,WeatherDisplay:10.37,2013-03-04 05:13:00,
2013-03-04 00:18:00,21.8,17.1,29.67,NW,315,16.1,16.1,82,0.00,OVC,,0.00,WeatherDisplay:10.37,2013-03-04 05:18:00,
2013-03-04 00:23:00,21.8,17.2,29.67,WNW,292,11.5,11.5,82,0.00,OVC,,0.00,WeatherDisplay:10.37,2013-03-04 05:23:00,
2013-03-04 00:28:00,21.8,17.1,29.67,NW,315,11.5,11.5,82,0.00,OVC,,0.00,WeatherDisplay:10.37,2013-03-04 05:28:00,
2013-03-04 00:33:00,21.5,16.8,29.67,NNW,338,12.7,12.7,82,0.00,OVC,,0.00,WeatherDisplay:10.37,2013-03-04 05:33:00,
2013-03-04 00:38:00,21.3,16.7,29.67,NW,315,10.5,10.5,82,0.00,OVC,,0.00,WeatherDisplay:10.37,2013-03-04 05:38:00,
2013-03-04 00:43:00,21.8,17.1,29.67,NW,315,12.7,12.7,82,0.00,OVC,,0.00,WeatherDisplay:10.37,2013-03-04 05:43:00,
2013-03-04 00:49:00,21.4,16.7,29.67,East,90,10.4,10.4,82,0.00,OVC,,0.00,WeatherDisplay:10.37,2013-03-04 05:49:00,
2013-03-04 00:54:00,21.5,16.8,29.67,NW,315,10.4,10.4,82,0.00,OVC,,0.00,WeatherDisplay:10.37,2013-03-04 05:54:00,
2013-03-04 00:59:00,21.1,16.5,29.67,NNW,338,10.4,10.4,82,0.00,OVC,,0.00,WeatherDisplay:10.37,2013-03-04 05:59:00,
2013-03-04 01:04:00,21.5,16.8,29.68,NW,315,12.7,12.7,82,0.00,OVC,,0.00,WeatherDisplay:10.37,2013-03-04 06:04:00,
2013-03-04 01:09:00,21.3,16.7,29.68,NW,315,4.6,4.6,82,0.00,OVC,,0.00,WeatherDisplay:10.37,2013-03-04 06:09:00,
2013-03-04 01:14:00,21.2,16.6,29.68,NW,315,11.5,11.5,82,0.00,OVC,,0.00,WeatherDisplay:10.37,2013-03-04 06:14:00,
2013-03-04 01:19:00,21.3,16.7,29.68,North,360,10.4,10.4,82,0.00,OVC,,0.00,WeatherDisplay:10.37,2013-03-04 06:19:00,
2013-03-04 01:24:00,21.4,16.7,29.68,NNW,338,7.3,7.3,82,0.00,OVC,,0.00,WeatherDisplay:10.37,2013-03-04 06:24:00,
2013-03-04 01:29:00,21.3,16.7,29.68,West,270,8.1,8.1,82,0.00,OVC,,0.00,WeatherDisplay:10.37,2013-03-04 06:29:00,
2013-03-04 01:34:00,21.4,16.7,29.68,NNW,338,5.8,5.8,82,0.00,OVC,,0.00,WeatherDisplay:10.37,2013-03-04 06:34:00,
2013-03-04 01:39:00,21.3,16.7,29.68,NE,45,4.6,4.6,82,0.00,OVC,,0.00,WeatherDisplay:10.37,2013-03-04 06:39:00,
2013-03-04 01:44:00,21.2,16.6,29.68,NW,315,13.8,13.8,82,0.00,OVC,,0.00,WeatherDisplay:10.37,2013-03-04 06:44:00,
2013-03-04 01:49:00,21.2,16.6,29.68,NW,315,10.4,10.4,82,0.00,OVC,,0.00,WeatherDisplay:10.37,2013-03-04 06:49:00,
2013-03-04 01:54:00,20.9,16.3,29.68,NNW,338,6.9,6.9,82,0.00,OVC,,0.00,WeatherDisplay:10.37,2013-03-04 06:54:00,
2013-03-04 01:59:00,20.9,16.2,29.68,WNW,292,6.9,6.9,82,0.00,OVC,,0.00,WeatherDisplay:10.37,2013-03-04 06:59:00,
2013-03-04 02:04:00,20.9,16.3,29.68,NNW,338,10.4,10.4,82,0.00,OVC,,0.00,WeatherDisplay:10.37,2013-03-04 07:04:00,
2013-03-04 02:09:00,20.7,15.5,29.68,NNW,338,5.8,5.8,80,0.00,OVC,,0.00,WeatherDisplay:10.37,2013-03-04 07:09:00,
2013-03-04 02:14:00,20.9,15.4,29.68,NW,315,5.8,5.8,79,0.00,OVC,,0.00,WeatherDisplay:10.37,2013-03-04 07:14:00,
2013-03-04 02:19:00,21.0,15.5,29.68,ENE,68,6.9,6.9,79,0.00,OVC,,0.00,WeatherDisplay:10.37,2013-03-04 07:19:00,
2013-03-04 02:24:00,21.0,15.5,29.68,NW,315,4.6,4.6,79,0.00,OVC,,0.00,WeatherDisplay:10.37,2013-03-04 07:24:00,
2013-03-04 02:29:00,20.9,15.1,29.68,North,360,6.9,6.9,78,0.00,OVC,,0.00,WeatherDisplay:10.37,2013-03-04 07:29:00,
2013-03-04 02:34:00,20.9,15.1,29.68,NW,315,11.5,11.5,78,0.00,OVC,,0.00,WeatherDisplay:10.37,2013-03-04 07:34:00,
2013-03-04 02:39:00,20.7,14.9,29.68,North,360,10.4,10.4,78,0.00,OVC,,0.00,WeatherDisplay:10.37,2013-03-04 07:39:00,
2013-03-04 02:44:00,20.5,14.8,29.68,NNW,338,15.0,15.0,78,0.00,OVC,,0.00,WeatherDisplay:10.37,2013-03-04 07:44:00,
2013-03-04 02:49:00,20.4,14.6,29.68,NW,315,10.4,10.4,78,0.00,OVC,,0.00,WeatherDisplay:10.37,2013-03-04 07:49:00,
2013-03-04 02:54:00,20.5,14.4,29.68,North,360,12.7,12.7,77,0.00,OVC,,0.00,WeatherDisplay:10.37,2013-03-04 07:54:00,
2013-03-04 02:59:00,20.4,14.3,29.68,NNW,338,13.8,13.8,77,0.00,OVC,,0.00,WeatherDisplay:10.37,2013-03-04 07:59:00,
2013-03-04 03:04:00,20.6,14.2,29.68,North,360,6.9,6.9,76,0.00,OVC,,0.00,WeatherDisplay:10.37,2013-03-04 08:04:00,
2013-03-04 03:09:00,20.5,14.2,29.68,ENE,68,9.2,9.2,76,0.00,OVC,,0.00,WeatherDisplay:10.37,2013-03-04 08:09:00,
2013-03-04 03:14:00,20.4,13.4,29.68,NW,315,11.5,11.5,74,0.00,OVC,,0.00,WeatherDisplay:10.37,2013-03-04 08:14:00,
2013-03-04 03:19:00,20.2,13.2,29.68,North,360,12.7,12.7,74,0.00,OVC,,0.00,WeatherDisplay:10.37,2013-03-04 08:19:00,
2013-03-04 03:24:00,20.2,12.9,29.68,NW,315,10.4,10.4,73,0.00,OVC,,0.00,WeatherDisplay:10.37,2013-03-04 08:24:00,
2013-03-04 03:29:00,20.2,12.6,29.68,West,270,5.8,5.8,72,0.00,OVC,,0.00,WeatherDisplay:10.37,2013-03-04 08:29:00,
2013-03-04 03:34:00,20.0,12.4,29.68,NW,315,8.1,8.1,72,0.00,OVC,,0.00,WeatherDisplay:10.37,2013-03-04 08:34:00,
2013-03-04 03:39:00,20.0,12.4,29.68,WNW,292,6.9,6.9,72,0.00,OVC,,0.00,WeatherDisplay:10.37,2013-03-04 08:39:00,
2013-03-04 03:44:00,19.9,12.3,29.68,North,360,3.5,3.5,72,0.00,OVC,,0.00,WeatherDisplay:10.37,2013-03-04 08:44:00,
2013-03-04 03:49:00,19.8,12.2,29.68,ENE,68,8.1,8.1,72,0.00,OVC,,0.00,WeatherDisplay:10.37,2013-03-04 08:49:00,
2013-03-04 03:54:00,19.8,12.2,29.68,North,360,10.4,10.4,72,0.00,OVC,,0.00,WeatherDisplay:10.37,2013-03-04 08:54:00,
2013-03-04 03:59:00,19.9,12.3,29.68,North,360,8.1,8.1,72,0.00,OVC,,0.00,WeatherDisplay:10.37,2013-03-04 08:59:00,
2013-03-04 04:04:00,19.9,12.6,29.68,WNW,292,12.3,12.3,73,0.00,OVC,,0.00,WeatherDisplay:10.37,2013-03-04 09:04:00,
2013-03-04 04:09:00,20.1,13.1,29.68,ENE,68,8.1,8.1,74,0.00,OVC,,0.00,WeatherDisplay:10.37,2013-03-04 09:09:00,
2013-03-04 04:14:00,19.9,12.9,29.68,ESE,112,15.0,15.0,74,0.00,OVC,,0.00,WeatherDisplay:10.37,2013-03-04 09:14:00,
2013-03-04 04:19:00,20.0,13.1,29.68,NW,315,10.5,10.5,74,0.00,OVC,,0.00,WeatherDisplay:10.37,2013-03-04 09:19:00,
2013-03-04 04:24:00,19.9,12.9,29.68,SSE,158,11.5,11.5,74,0.00,OVC,,0.00,WeatherDisplay:10.37,2013-03-04 09:24:00,
2013-03-04 04:29:00,19.5,12.6,29.68,WNW,292,11.5,11.5,74,0.00,OVC,,0.00,WeatherDisplay:10.37,2013-03-04 09:29:00,
2013-03-04 04:34:00,19.7,12.7,29.68,NW,315,21.9,21.9,74,0.00,OVC,,0.00,WeatherDisplay:10.37,2013-03-04 09:34:00,
2013-03-04 04:39:00,19.7,12.7,29.68,NW,315,10.4,10.4,74,0.00,OVC,,0.00,WeatherDisplay:10.37,2013-03-04 09:39:00,
2013-03-04 04:44:00,19.3,12.4,29.68,WNW,292,17.3,17.3,74,0.00,OVC,,0.00,WeatherDisplay:10.37,2013-03-04 09:44:00,
2013-03-04 04:49:00,19.7,12.7,29.68,North,360,8.1,8.1,74,0.00,OVC,,0.00,WeatherDisplay:10.37,2013-03-04 09:49:00,
2013-03-04 04:54:00,19.5,12.5,29.68,NW,315,13.3,13.3,74,0.00,OVC,,0.00,WeatherDisplay:10.37,2013-03-04 09:54:00,
2013-03-04 04:59:00,19.6,12.9,29.68,NW,315,10.4,10.4,75,0.00,OVC,,0.00,WeatherDisplay:10.37,2013-03-04 09:59:00,
2013-03-04 05:04:00,19.6,13.0,29.69,NW,315,10.4,10.4,75,0.00,OVC,,0.00,WeatherDisplay:10.37,2013-03-04 10:04:00,
2013-03-04 05:09:00,19.8,13.1,29.69,NW,315,14.7,14.7,75,0.00,OVC,,0.00,WeatherDisplay:10.37,2013-03-04 10:09:00,
2013-03-04 05:14:00,19.5,12.9,29.69,NNE,22,15.0,15.0,75,0.00,OVC,,0.00,WeatherDisplay:10.37,2013-03-04 10:14:00,
2013-03-04 05:19:00,19.3,12.7,29.69,West,270,19.6,19.6,75,0.00,OVC,,0.00,WeatherDisplay:10.37,2013-03-04 10:19:00,
2013-03-04 05:24:00,19.6,13.0,29.69,NW,315,16.1,16.1,75,0.00,OVC,,0.00,WeatherDisplay:10.37,2013-03-04 10:24:00,
2013-03-04 05:29:00,19.4,12.8,29.69,NNW,338,15.0,15.0,75,0.00,OVC,,0.00,WeatherDisplay:10.37,2013-03-04 10:29:00,
2013-03-04 05:34:00,19.5,12.8,29.69,NNW,338,10.4,10.4,75,0.00,OVC,,0.00,WeatherDisplay:10.37,2013-03-04 10:34:00,
2013-03-04 05:39:00,19.5,12.8,29.69,NW,315,15.0,15.0,75,0.00,OVC,,0.00,WeatherDisplay:10.37,2013-03-04 10:39:00,
2013-03-04 05:44:00,19.3,12.7,29.69,NNW,338,9.2,9.2,75,0.00,OVC,,0.00,WeatherDisplay:10.37,2013-03-04 10:44:00,
2013-03-04 05:49:00,19.2,12.6,29.69,NW,315,9.2,9.2,75,0.00,OVC,,0.00,WeatherDisplay:10.37,2013-03-04 10:49:00,
2013-03-04 05:54:00,19.3,12.7,29.69,NNW,338,10.4,10.4,75,0.00,OVC,,0.00,WeatherDisplay:10.37,2013-03-04 10:54:00,
2013-03-04 05:59:00,19.3,12.7,29.69,WNW,292,8.8,8.8,75,0.00,OVC,,0.00,WeatherDisplay:10.37,2013-03-04 10:59:00,
2013-03-04 06:04:00,19.4,12.8,29.70,NW,315,11.5,11.5,75,0.00,OVC,,0.00,WeatherDisplay:10.37,2013-03-04 11:04:00,
2013-03-04 06:09:00,19.6,13.0,29.70,NNE,22,15.0,15.0,75,0.00,OVC,,0.00,WeatherDisplay:10.37,2013-03-04 11:09:00,
2013-03-04 06:14:00,19.5,12.8,29.70,WNW,292,13.8,13.8,75,0.00,OVC,,0.00,WeatherDisplay:10.37,2013-03-04 11:14:00,
2013-03-04 06:19:00,19.4,12.8,29.70,NW,315,13.8,13.8,75,0.00,OVC,,0.00,WeatherDisplay:10.37,2013-03-04 11:19:00,
2013-03-04 06:24:00,19.4,12.8,29.70,NW,315,19.6,19.6,75,0.00,OVC,,0.00,WeatherDisplay:10.37,2013-03-04 11:24:00,
2013-03-04 06:29:00,19.3,12.7,29.70,NW,315,12.7,12.7,75,0.00,OVC,,0.00,WeatherDisplay:10.37,2013-03-04 11:29:00,
2013-03-04 06:34:00,19.4,12.8,29.70,North,360,12.7,12.7,75,0.00,OVC,,0.00,WeatherDisplay:10.37,2013-03-04 11:34:00,
2013-03-04 06:39:00,19.3,12.7,29.70,NW,315,11.7,11.7,75,0.00,OVC,,0.00,WeatherDisplay:10.37,2013-03-04 11:39:00,
2013-03-04 06:44:00,19.6,12.9,29.70,NNW,338,21.9,21.9,75,0.00,OVC,,0.00,WeatherDisplay:10.37,2013-03-04 11:44:00,
2013-03-04 06:49:00,19.4,12.8,29.70,NW,315,19.3,19.3,75,0.00,OVC,,0.00,WeatherDisplay:10.37,2013-03-04 11:49:00,
2013-03-04 06:54:00,19.4,12.8,29.70,NNW,338,16.1,16.1,75,0.00,OVC,,0.00,WeatherDisplay:10.37,2013-03-04 11:54:00,
2013-03-04 06:59:00,19.6,13.0,29.70,NW,315,16.1,16.1,75,0.00,OVC,,0.00,WeatherDisplay:10.37,2013-03-04 11:59:00,
2013-03-04 07:04:00,19.6,12.9,29.70,NE,45,10.4,10.4,75,0.00,OVC,,0.00,WeatherDisplay:10.37,2013-03-04 12:04:00,
2013-03-04 07:09:00,19.6,13.0,29.70,North,360,15.4,15.4,75,0.00,OVC,,0.00,WeatherDisplay:10.37,2013-03-04 12:09:00,
2013-03-04 07:14:00,19.7,13.1,29.70,NW,315,13.8,13.8,75,0.00,OVC,,0.00,WeatherDisplay:10.37,2013-03-04 12:14:00,
2013-03-04 07:19:00,19.7,13.0,29.70,NW,315,9.2,9.2,75,0.00,OVC,,0.00,WeatherDisplay:10.37,2013-03-04 12:19:00,
2013-03-04 07:24:00,20.1,13.4,29.70,WNW,292,11.5,11.5,75,0.00,OVC,,0.00,WeatherDisplay:10.37,2013-03-04 12:24:00,
2013-03-04 07:29:00,19.9,13.3,29.70,North,360,10.4,10.4,75,0.00,OVC,,0.00,WeatherDisplay:10.37,2013-03-04 12:29:00,
2013-03-04 07:34:00,20.1,13.4,29.70,NW,315,16.1,16.1,75,0.00,OVC,,0.00,WeatherDisplay:10.37,2013-03-04 12:34:00,
2013-03-04 07:39:00,20.2,13.6,29.70,NNW,338,13.8,13.8,75,0.00,OVC,,0.00,WeatherDisplay:10.37,2013-03-04 12:39:00,
2013-03-04 07:44:00,20.0,13.4,29.70,NW,315,20.7,20.7,75,0.00,OVC,,0.00,WeatherDisplay:10.37,2013-03-04 12:44:00,
2013-03-04 07:49:00,20.6,14.0,29.70,NW,315,12.7,12.7,75,0.00,OVC,,0.00,WeatherDisplay:10.37,2013-03-04 12:49:00,
2013-03-04 07:54:00,20.3,13.6,29.70,West,270,15.0,15.0,75,0.00,OVC,,0.00,WeatherDisplay:10.37,2013-03-04 12:54:00,
2013-03-04 07:59:00,20.7,14.0,29.70,NNW,338,13.8,13.8,75,0.00,OVC,,0.00,WeatherDisplay:10.37,2013-03-04 12:59:00,
2013-03-04 08:04:00,20.9,14.2,29.70,NW,315,11.5,11.5,75,0.00,OVC,,0.00,WeatherDisplay:10.37,2013-03-04 13:04:00,
2013-03-04 08:09:00,21.0,14.3,29.70,NW,315,23.0,23.0,75,0.00,OVC,,0.00,WeatherDisplay:10.37,2013-03-04 13:09:00,
2013-03-04 08:14:00,21.2,14.5,29.70,WNW,292,13.2,13.2,75,0.00,OVC,,0.00,WeatherDisplay:10.37,2013-03-04 13:14:00,
2013-03-04 08:19:00,21.5,14.8,29.70,WNW,292,15.2,15.2,75,0.00,OVC,,0.00,WeatherDisplay:10.37,2013-03-04 13:19:00,
2013-03-04 08:24:00,21.6,14.9,29.70,NW,315,15.0,15.0,75,0.00,OVC,,0.00,WeatherDisplay:10.37,2013-03-04 13:24:00,
2013-03-04 08:29:00,22.0,15.3,29.70,NNW,338,14.8,14.8,75,0.00,OVC,,0.00,WeatherDisplay:10.37,2013-03-04 13:29:00,
2013-03-04 08:34:00,21.7,15.0,29.70,WNW,292,16.1,16.1,75,0.00,OVC,,0.00,WeatherDisplay:10.37,2013-03-04 13:34:00,
2013-03-04 08:39:00,21.8,15.1,29.70,NNW,338,23.0,23.0,75,0.00,OVC,,0.00,WeatherDisplay:10.37,2013-03-04 13:39:00,
2013-03-04 08:44:00,22.0,15.3,29.70,NW,315,24.2,24.2,75,0.00,OVC,,0.00,WeatherDisplay:10.37,2013-03-04 13:44:00,
2013-03-04 08:49:00,22.3,15.6,29.70,NW,315,23.0,23.0,75,0.00,OVC,,0.00,WeatherDisplay:10.37,2013-03-04 13:49:00,
2013-03-04 08:54:00,22.6,15.9,29.70,North,360,31.1,31.1,75,0.00,OVC,,0.00,WeatherDisplay:10.37,2013-03-04 13:54:00,
2013-03-04 08:59:00,22.7,16.0,29.70,NNW,338,16.1,16.1,75,0.00,OVC,,0.00,WeatherDisplay:10.37,2013-03-04 13:59:00,
2013-03-04 09:04:00,22.8,16.0,29.69,WNW,292,21.9,21.9,75,0.00,OVC,,0.00,WeatherDisplay:10.37,2013-03-04 14:04:00,
2013-03-04 09:09:00,23.1,16.3,29.69,WNW,292,18.4,18.4,75,0.00,OVC,,0.00,WeatherDisplay:10.37,2013-03-04 14:09:00,
2013-03-04 09:14:00,22.6,15.9,29.69,NW,315,21.9,21.9,75,0.00,OVC,,0.00,WeatherDisplay:10.37,2013-03-04 14:14:00,
2013-03-04 09:19:00,22.8,16.1,29.69,West,270,18.4,18.4,75,0.00,OVC,,0.00,WeatherDisplay:10.37,2013-03-04 14:19:00,
2013-03-04 09:24:00,23.2,16.5,29.69,NNE,22,21.9,21.9,75,0.00,OVC,,0.00,WeatherDisplay:10.37,2013-03-04 14:24:00,
2013-03-04 09:29:00,23.2,16.5,29.69,NW,315,24.2,24.2,75,0.00,OVC,,0.00,WeatherDisplay:10.37,2013-03-04 14:29:00,
2013-03-04 09:34:00,23.6,16.9,29.69,NW,315,16.1,16.1,75,0.00,OVC,,0.00,WeatherDisplay:10.37,2013-03-04 14:34:00,
2013-03-04 09:39:00,23.7,17.0,29.69,NNW,338,20.7,20.7,75,0.00,OVC,,0.00,WeatherDisplay:10.37,2013-03-04 14:39:00,
2013-03-04 09:44:00,23.8,17.0,29.69,NW,315,18.4,18.4,75,0.00,OVC,,0.00,WeatherDisplay:10.37,2013-03-04 14:44:00,
2013-03-04 09:49:00,23.5,16.7,29.69,NW,315,19.6,19.6,75,0.00,OVC,,0.00,WeatherDisplay:10.37,2013-03-04 14:49:00,
2013-03-04 09:54:00,24.1,17.3,29.69,NW,315,16.1,16.1,75,0.00,OVC,,0.00,WeatherDisplay:10.37,2013-03-04 14:54:00,
2013-03-04 09:59:00,24.4,17.6,29.69,NNW,338,18.4,18.4,75,0.00,OVC,,0.00,WeatherDisplay:10.37,2013-03-04 14:59:00,
2013-03-04 10:04:00,24.7,17.9,29.70,West,270,19.6,19.6,75,0.00,OVC,,0.00,WeatherDisplay:10.37,2013-03-04 15:04:00,
2013-03-04 10:10:00,24.9,17.4,29.70,NW,315,21.9,21.9,73,0.00,OVC,,0.00,WeatherDisplay:10.37,2013-03-04 15:10:00,
2013-03-04 10:15:00,25.0,18.2,29.70,WNW,292,31.1,31.1,75,0.00,OVC,,0.00,WeatherDisplay:10.37,2013-03-04 15:15:00,
2013-03-04 10:20:00,25.3,18.5,29.70,NNW,338,19.8,19.8,75,0.00,OVC,,0.00,WeatherDisplay:10.37,2013-03-04 15:20:00,
2013-03-04 10:25:00,25.8,18.3,29.70,NW,315,16.1,16.1,73,0.00,OVC,,0.00,WeatherDisplay:10.37,2013-03-04 15:25:00,
2013-03-04 10:30:00,26.1,19.3,29.70,NNW,338,21.9,21.9,75,0.00,OVC,,0.00,WeatherDisplay:10.37,2013-03-04 15:30:00,
2013-03-04 10:36:00,26.7,19.8,29.70,NE,45,27.6,27.6,75,0.00,OVC,,0.00,WeatherDisplay:10.37,2013-03-04 15:36:00,
2013-03-04 10:41:00,26.8,19.9,29.70,NW,315,24.2,24.2,75,0.00,OVC,,0.00,WeatherDisplay:10.37,2013-03-04 15:41:00,
2013-03-04 10:46:00,26.9,20.0,29.70,NW,315,17.3,17.3,75,0.00,OVC,,0.00,WeatherDisplay:10.37,2013-03-04 15:46:00,
2013-03-04 10:51:00,27.6,20.7,29.70,NW,315,31.1,31.1,75,0.00,OVC,,0.00,WeatherDisplay:10.37,2013-03-04 15:51:00,
2013-03-04 10:56:00,28.2,21.3,29.70,NW,315,16.1,16.1,75,0.00,OVC,,0.00,WeatherDisplay:10.37,2013-03-04 15:56:00,
2013-03-04 11:01:00,28.6,21.7,29.69,WSW,248,15.0,15.0,75,0.00,OVC,,0.00,WeatherDisplay:10.37,2013-03-04 16:01:00,
2013-03-04 11:06:00,28.7,21.8,29.69,NW,315,13.8,13.8,75,0.00,OVC,,0.00,WeatherDisplay:10.37,2013-03-04 16:06:00,
2013-03-04 11:11:00,28.6,18.3,29.69,NNW,338,17.3,17.3,65,0.00,OVC,,0.00,WeatherDisplay:10.37,2013-03-04 16:11:00,
2013-03-04 11:16:00,28.7,18.4,29.69,West,270,24.2,24.2,65,0.00,OVC,,0.00,WeatherDisplay:10.37,2013-03-04 16:16:00,
2013-03-04 11:21:00,29.8,18.7,29.69,NW,315,17.3,17.3,63,0.00,OVC,,0.00,WeatherDisplay:10.37,2013-03-04 16:21:00,
2013-03-04 11:26:00,29.5,18.5,29.69,NNW,338,23.0,23.0,63,0.00,OVC,,0.00,WeatherDisplay:10.37,2013-03-04 16:26:00,
2013-03-04 11:31:00,29.2,18.1,29.69,WNW,292,20.7,20.7,63,0.00,OVC,,0.00,WeatherDisplay:10.37,2013-03-04 16:31:00,
2013-03-04 11:37:00,30.2,19.1,29.69,North,360,18.4,18.4,63,0.00,OVC,,0.00,WeatherDisplay:10.37,2013-03-04 16:37:00,
2013-03-04 11:42:00,30.0,18.9,29.69,NNE,22,19.6,19.6,63,0.00,OVC,,0.00,WeatherDisplay:10.37,2013-03-04 16:42:00,
2013-03-04 11:47:00,30.8,19.6,29.69,WNW,292,12.7,12.7,63,0.00,OVC,,0.00,WeatherDisplay:10.37,2013-03-04 16:47:00,
2013-03-04 11:52:00,29.6,18.6,29.69,North,360,20.7,20.7,63,0.00,OVC,,0.00,WeatherDisplay:10.37,2013-03-04 16:52:00,
2013-03-04 11:57:00,30.2,19.1,29.69,West,270,12.7,12.7,63,0.00,OVC,,0.00,WeatherDisplay:10.37,2013-03-04 16:57:00,
2013-03-04 12:02:00,30.1,17.1,29.69,North,360,16.1,16.1,58,0.00,OVC,,0.00,WeatherDisplay:10.37,2013-03-04 17:02:00,
2013-03-04 12:08:00,31.6,18.5,29.69,NW,315,23.0,23.0,58,0.00,OVC,,0.00,WeatherDisplay:10.37,2013-03-04 17:08:00,
2013-03-04 12:13:00,30.4,17.4,29.69,WNW,292,21.9,21.9,58,0.00,OVC,,0.00,WeatherDisplay:10.37,2013-03-04 17:13:00,
2013-03-04 12:18:00,31.3,18.2,29.69,NW,315,29.9,29.9,58,0.00,OVC,,0.00,WeatherDisplay:10.37,2013-03-04 17:18:00,
2013-03-04 12:23:00,31.3,18.2,29.69,NW,315,17.3,17.3,58,0.00,OVC,,0.00,WeatherDisplay:10.37,2013-03-04 17:23:00,
2013-03-04 12:28:00,31.9,18.8,29.69,NW,315,20.8,20.8,58,0.00,OVC,,0.00,WeatherDisplay:10.37,2013-03-04 17:28:00,
2013-03-04 12:33:00,32.0,18.9,29.69,West,270,24.2,24.2,58,0.00,OVC,,0.00,WeatherDisplay:10.37,2013-03-04 17:33:00,
2013-03-04 12:38:00,31.3,18.2,29.69,West,270,21.9,21.9,58,0.00,OVC,,0.00,WeatherDisplay:10.37,2013-03-04 17:38:00,
2013-03-04 12:43:00,30.9,17.8,29.69,ESE,112,21.9,21.9,58,0.00,OVC,,0.00,WeatherDisplay:10.37,2013-03-04 17:43:00,
2013-03-04 12:48:00,31.1,18.0,29.69,NW,315,20.7,20.7,58,0.00,OVC,,0.00,WeatherDisplay:10.37,2013-03-04 17:48:00,
2013-03-04 12:53:00,31.0,18.0,29.69,North,360,32.2,32.2,58,0.00,OVC,,0.00,WeatherDisplay:10.37,2013-03-04 17:53:00,
2013-03-04 12:58:00,31.2,18.1,29.69,NW,315,9.2,9.2,58,0.00,OVC,,0.00,WeatherDisplay:10.37,2013-03-04 17:58:00,
2013-03-04 13:03:00,32.7,19.5,29.68,NNW,338,14.7,14.7,58,0.00,OVC,,0.00,WeatherDisplay:10.37,2013-03-04 18:03:00,
2013-03-04 13:08:00,32.1,18.9,29.68,NW,315,27.6,27.6,58,0.00,OVC,,0.00,WeatherDisplay:10.37,2013-03-04 18:08:00,
2013-03-04 13:13:00,32.6,19.4,29.68,WNW,292,23.0,23.0,58,0.00,OVC,,0.00,WeatherDisplay:10.37,2013-03-04 18:13:00,
2013-03-04 13:18:00,32.7,19.6,29.68,North,360,20.7,20.7,58,0.00,OVC,,0.00,WeatherDisplay:10.37,2013-03-04 18:18:00,
2013-03-04 13:23:00,33.1,19.9,29.68,NW,315,17.3,17.3,58,0.00,OVC,,0.00,WeatherDisplay:10.37,2013-03-04 18:23:00,
2013-03-04 13:28:00,32.6,19.5,29.68,NW,315,19.6,19.6,58,0.00,OVC,,0.00,WeatherDisplay:10.37,2013-03-04 18:28:00,
2013-03-04 13:30:00,32.8,19.7,29.68,NNW,338,17.8,17.8,58,0.00,OVC,,0.00,WeatherDisplay:10.37,2013-03-04 18:30:00,
2013-03-04 13:36:00,32.8,19.6,29.68,NW,315,21.9,21.9,58,0.00,OVC,,0.00,WeatherDisplay:10.37,2013-03-04 18:36:00,
2013-03-04 13:41:00,32.9,19.7,29.68,NW,315,24.2,24.2,58,0.00,OVC,,0.00,WeatherDisplay:10.37,2013-03-04 18:41:00,
2013-03-04 13:46:00,32.0,18.9,29.68,North,360,18.4,18.4,58,0.00,OVC,,0.00,WeatherDisplay:10.37,2013-03-04 18:46:00,
2013-03-04 13:51:00,32.5,19.3,29.68,NW,315,21.9,21.9,58,0.00,OVC,,0.00,WeatherDisplay:10.37,2013-03-04 18:51:00,
2013-03-04 13:52:00,32.5,19.4,29.68,NW,315,21.9,21.9,58,0.00,OVC,,0.00,WeatherDisplay:10.37,2013-03-04 18:52:00,
2013-03-04 13:57:00,31.7,18.6,29.68,NE,45,13.8,13.8,58,0.00,OVC,,0.00,WeatherDisplay:10.37,2013-03-04 18:57:00,
2013-03-04 14:02:00,31.0,16.3,29.67,NNE,22,26.5,26.5,54,0.00,OVC,,0.00,WeatherDisplay:10.37,2013-03-04 19:02:00,
2013-03-04 14:07:00,31.2,16.5,29.67,NNW,338,17.3,17.3,54,0.00,OVC,,0.00,WeatherDisplay:10.37,2013-03-04 19:07:00,
2013-03-04 14:13:00,30.8,16.1,29.67,NNW,338,21.9,21.9,54,0.00,OVC,,0.00,WeatherDisplay:10.37,2013-03-04 19:13:00,
2013-03-04 14:18:00,31.9,17.1,29.67,NNW,338,12.7,12.7,54,0.00,OVC,,0.00,WeatherDisplay:10.37,2013-03-04 19:18:00,
2013-03-04 14:23:00,31.4,16.6,29.67,North,360,24.2,24.2,54,0.00,OVC,,0.00,WeatherDisplay:10.37,2013-03-04 19:23:00,
2013-03-04 14:28:00,31.2,16.4,29.67,NW,315,15.0,15.0,54,0.00,OVC,,0.00,WeatherDisplay:10.37,2013-03-04 19:28:00,
2013-03-04 14:33:00,31.2,16.5,29.67,SE,135,20.7,20.7,54,0.00,OVC,,0.00,WeatherDisplay:10.37,2013-03-04 19:33:00,
2013-03-04 14:38:00,30.6,15.9,29.67,NNE,22,25.3,25.3,54,0.00,OVC,,0.00,WeatherDisplay:10.37,2013-03-04 19:38:00,
2013-03-04 14:43:00,30.7,16.0,29.67,NNE,22,21.9,21.9,54,0.00,OVC,,0.00,WeatherDisplay:10.37,2013-03-04 19:43:00,
2013-03-04 14:48:00,30.7,16.0,29.67,NW,315,20.9,20.9,54,0.00,OVC,,0.00,WeatherDisplay:10.37,2013-03-04 19:48:00,
2013-03-04 14:53:00,30.8,16.1,29.67,NW,315,18.4,18.4,54,0.00,OVC,,0.00,WeatherDisplay:10.37,2013-03-04 19:53:00,
2013-03-04 14:58:00,30.5,15.8,29.67,North,360,15.0,15.0,54,0.00,OVC,,0.00,WeatherDisplay:10.37,2013-03-04 19:58:00,
2013-03-04 15:00:00,30.6,15.9,29.67,NW,319,7.0,34.0,54,0.00,OVC,,0.00,WeatherDisplay:10.37,2013-03-04 20:00:00,
2013-03-04 15:06:00,29.9,16.9,29.69,ENE,68,23.0,23.0,58,0.00,OVC,,0.00,WeatherDisplay:10.37,2013-03-04 20:06:00,
2013-03-04 15:11:00,30.5,17.4,29.69,North,360,10.4,10.4,58,0.00,OVC,,0.00,WeatherDisplay:10.37,2013-03-04 20:11:00,
2013-03-04 15:16:00,30.6,17.6,29.69,NNW,338,15.0,15.0,58,0.00,OVC,,0.00,WeatherDisplay:10.37,2013-03-04 20:16:00,
2013-03-04 15:21:00,30.4,17.4,29.69,NE,45,12.9,12.9,58,0.00,OVC,,0.00,WeatherDisplay:10.37,2013-03-04 20:21:00,
2013-03-04 15:26:00,29.9,16.9,29.69,NNW,338,23.5,23.5,58,0.00,OVC,,0.00,WeatherDisplay:10.37,2013-03-04 20:26:00,
2013-03-04 15:31:00,29.9,16.9,29.69,NW,315,8.1,8.1,58,0.00,OVC,,0.00,WeatherDisplay:10.37,2013-03-04 20:31:00,
2013-03-04 15:36:00,30.0,17.0,29.69,NW,315,19.6,19.6,58,0.00,OVC,,0.00,WeatherDisplay:10.37,2013-03-04 20:36:00,
2013-03-04 15:41:00,29.7,16.7,29.69,NNW,338,26.5,26.5,58,0.00,OVC,,0.00,WeatherDisplay:10.37,2013-03-04 20:41:00,
2013-03-04 15:46:00,29.4,16.4,29.69,NW,315,31.1,31.1,58,0.00,OVC,,0.00,WeatherDisplay:10.37,2013-03-04 20:46:00,
2013-03-04 15:51:00,28.9,22.3,29.69,NW,315,25.3,25.3,76,0.00,OVC,,0.00,WeatherDisplay:10.37,2013-03-04 20:51:00,
2013-03-04 15:56:00,28.9,23.5,29.69,NW,315,13.8,13.8,80,0.00,OVC,,0.00,WeatherDisplay:10.37,2013-03-04 20:56:00,
2013-03-04 16:01:00,28.9,26.6,29.70,NNW,338,24.2,24.2,91,0.00,OVC,,0.00,WeatherDisplay:10.37,2013-03-04 21:01:00,
2013-03-04 16:06:00,28.8,26.5,29.70,NW,315,27.6,27.6,91,0.00,OVC,,0.00,WeatherDisplay:10.37,2013-03-04 21:06:00,
2013-03-04 16:11:00,28.2,25.9,29.70,NW,315,26.5,26.5,91,0.00,OVC,,0.00,WeatherDisplay:10.37,2013-03-04 21:11:00,
2013-03-04 16:16:00,28.0,20.1,29.70,WNW,292,16.1,16.1,72,0.00,OVC,,0.00,WeatherDisplay:10.37,2013-03-04 21:16:00,
2013-03-04 16:21:00,28.0,18.8,29.70,WNW,292,21.9,21.9,68,0.00,OVC,,0.00,WeatherDisplay:10.37,2013-03-04 21:21:00,
2013-03-04 16:26:00,27.9,18.7,29.70,NW,315,15.0,15.0,68,0.00,OVC,,0.00,WeatherDisplay:10.37,2013-03-04 21:26:00,
2013-03-04 16:31:00,27.9,18.7,29.70,NW,315,18.4,18.4,68,0.00,OVC,,0.00,WeatherDisplay:10.37,2013-03-04 21:31:00,
2013-03-04 16:36:00,28.3,19.1,29.70,NW,315,16.1,16.1,68,0.00,OVC,,0.00,WeatherDisplay:10.37,2013-03-04 21:36:00,
2013-03-04 16:41:00,28.3,19.1,29.70,NNW,338,18.2,18.2,68,0.00,OVC,,0.00,WeatherDisplay:10.37,2013-03-04 21:41:00,
2013-03-04 16:46:00,27.8,18.6,29.70,NNW,338,24.2,24.2,68,0.00,OVC,,0.00,WeatherDisplay:10.37,2013-03-04 21:46:00,
2013-03-04 16:51:00,27.1,17.9,29.70,NW,315,28.1,28.1,68,0.00,OVC,,0.00,WeatherDisplay:10.37,2013-03-04 21:51:00,
2013-03-04 16:56:00,26.4,17.3,29.70,NW,315,16.1,16.1,68,0.00,OVC,,0.00,WeatherDisplay:10.37,2013-03-04 21:56:00,
2013-03-04 17:01:00,26.0,16.9,29.71,North,360,24.2,24.2,68,0.00,OVC,,0.00,WeatherDisplay:10.37,2013-03-04 22:01:00,
2013-03-04 17:06:00,25.5,16.4,29.71,NNW,338,26.5,26.5,68,0.00,OVC,,0.00,WeatherDisplay:10.37,2013-03-04 22:06:00,
2013-03-04 17:11:00,25.1,16.1,29.71,NNE,22,21.9,21.9,68,0.00,OVC,,0.00,WeatherDisplay:10.37,2013-03-04 22:11:00,
2013-03-04 17:16:00,24.9,18.4,29.71,WNW,292,11.7,11.7,76,0.00,OVC,,0.00,WeatherDisplay:10.37,2013-03-04 22:16:00,
2013-03-04 17:21:00,24.6,18.4,29.71,NW,315,21.9,21.9,77,0.00,OVC,,0.00,WeatherDisplay:10.37,2013-03-04 22:21:00,
2013-03-04 17:26:00,24.0,17.8,29.71,NW,315,25.3,25.3,77,0.00,OVC,,0.00,WeatherDisplay:10.37,2013-03-04 22:26:00,
2013-03-04 17:31:00,24.0,17.8,29.71,NW,315,15.0,15.0,77,0.00,OVC,,0.00,WeatherDisplay:10.37,2013-03-04 22:31:00,
2013-03-04 17:36:00,23.8,17.7,29.71,NW,315,24.2,24.2,77,0.00,OVC,,0.00,WeatherDisplay:10.37,2013-03-04 22:36:00,
2013-03-04 17:41:00,23.7,17.6,29.71,WNW,292,19.1,19.1,77,0.00,OVC,,0.00,WeatherDisplay:10.37,2013-03-04 22:41:00,
2013-03-04 17:46:00,23.5,17.3,29.71,North,360,15.0,15.0,77,0.00,OVC,,0.00,WeatherDisplay:10.37,2013-03-04 22:46:00,
2013-03-04 17:51:00,23.2,17.0,29.71,NW,315,26.4,26.4,77,0.00,OVC,,0.00,WeatherDisplay:10.37,2013-03-04 22:51:00,
2013-03-04 17:56:00,23.1,17.0,29.71,NW,315,23.0,23.0,77,0.00,OVC,,0.00,WeatherDisplay:10.37,2013-03-04 22:56:00,
2013-03-04 18:01:00,22.8,16.6,29.77,NW,315,23.3,23.3,77,0.00,OVC,,0.00,WeatherDisplay:10.37,2013-03-04 23:01:00,
2013-03-04 18:06:00,22.8,17.0,29.77,NNW,338,23.0,23.0,78,0.00,OVC,,0.00,WeatherDisplay:10.37,2013-03-04 23:06:00,
2013-03-04 18:11:00,23.0,17.5,29.77,NE,45,17.3,17.3,79,0.00,OVC,,0.00,WeatherDisplay:10.37,2013-03-04 23:11:00,
2013-03-04 18:16:00,22.8,17.6,29.77,North,360,22.0,22.0,80,0.00,OVC,,0.00,WeatherDisplay:10.37,2013-03-04 23:16:00,
2013-03-04 18:21:00,22.6,17.4,29.77,NW,315,20.7,20.7,80,0.00,OVC,,0.00,WeatherDisplay:10.37,2013-03-04 23:21:00,
2013-03-04 18:26:00,22.7,17.4,29.77,NW,315,15.0,15.0,80,0.00,OVC,,0.00,WeatherDisplay:10.37,2013-03-04 23:26:00,
2013-03-04 18:31:00,22.9,17.6,29.77,West,270,16.1,16.1,80,0.00,OVC,,0.00,WeatherDisplay:10.37,2013-03-04 23:31:00,
2013-03-04 18:36:00,22.9,17.6,29.77,NW,315,12.3,12.3,80,0.00,OVC,,0.00,WeatherDisplay:10.37,2013-03-04 23:36:00,
2013-03-04 18:42:00,22.7,17.7,29.77,NNW,338,21.9,21.9,81,0.00,OVC,,0.00,WeatherDisplay:10.37,2013-03-04 23:42:00,
2013-03-04 18:47:00,22.7,17.8,29.77,NNW,338,26.5,26.5,81,0.00,OVC,,0.00,WeatherDisplay:10.37,2013-03-04 23:47:00,
2013-03-04 18:52:00,22.4,17.5,29.77,NW,315,13.8,13.8,81,0.00,OVC,,0.00,WeatherDisplay:10.37,2013-03-04 23:52:00,
2013-03-04 18:58:00,22.6,17.7,29.77,North,360,16.1,16.1,81,0.00,OVC,,0.00,WeatherDisplay:10.37,2013-03-04 23:58:00,
2013-03-04 19:03:00,22.3,17.4,29.80,North,360,24.2,24.2,81,0.00,OVC,,0.00,WeatherDisplay:10.37,2013-03-05 00:03:00,
2013-03-04 19:08:00,22.4,17.4,29.80,NW,315,16.1,16.1,81,0.00,OVC,,0.00,WeatherDisplay:10.37,2013-03-05 00:08:00,
2013-03-04 19:13:00,22.3,17.3,29.80,NW,315,15.0,15.0,81,0.00,OVC,,0.00,WeatherDisplay:10.37,2013-03-05 00:13:00,
2013-03-04 19:18:00,22.2,17.3,29.80,NNW,338,19.6,19.6,81,0.00,OVC,,0.00,WeatherDisplay:10.37,2013-03-05 00:18:00,
2013-03-04 19:23:00,22.0,17.0,29.80,WNW,292,21.9,21.9,81,0.00,OVC,,0.00,WeatherDisplay:10.37,2013-03-05 00:23:00,
2013-03-04 19:28:00,22.0,17.1,29.80,North,360,18.4,18.4,81,0.00,OVC,,0.00,WeatherDisplay:10.37,2013-03-05 00:28:00,
2013-03-04 19:33:00,21.9,16.9,29.80,NNW,338,9.2,9.2,81,0.00,OVC,,0.00,WeatherDisplay:10.37,2013-03-05 00:33:00,
2013-03-04 19:38:00,21.7,16.7,29.80,NW,315,11.5,11.5,81,0.00,OVC,,0.00,WeatherDisplay:10.37,2013-03-05 00:38:00,
2013-03-04 19:43:00,21.8,16.9,29.80,NW,315,21.9,21.9,81,0.00,OVC,,0.00,WeatherDisplay:10.37,2013-03-05 00:43:00,
2013-03-04 19:48:00,21.8,16.9,29.80,North,360,15.0,15.0,81,0.00,OVC,,0.00,WeatherDisplay:10.37,2013-03-05 00:48:00,
2013-03-04 19:53:00,21.7,16.8,29.80,North,360,15.0,15.0,81,0.00,OVC,,0.00,WeatherDisplay:10.37,2013-03-05 00:53:00,
2013-03-04 19:58:00,21.7,16.7,29.80,NW,315,10.4,10.4,81,0.00,OVC,,0.00,WeatherDisplay:10.37,2013-03-05 00:58:00,
2013-03-04 20:03:00,21.7,16.7,29.82,NW,315,15.0,15.0,81,0.00,OVC,,0.00,WeatherDisplay:10.37,2013-03-05 01:03:00,
2013-03-04 20:08:00,21.6,16.7,29.82,NW,315,10.4,10.4,81,0.00,OVC,,0.00,WeatherDisplay:10.37,2013-03-05 01:08:00,
2013-03-04 20:13:00,21.6,16.7,29.82,WNW,292,9.2,9.2,81,0.00,OVC,,0.00,WeatherDisplay:10.37,2013-03-05 01:13:00,
2013-03-04 20:18:00,21.4,16.4,29.82,NW,315,12.2,12.2,81,0.00,OVC,,0.00,WeatherDisplay:10.37,2013-03-05 01:18:00,
2013-03-04 20:23:00,21.5,16.6,29.82,NNE,22,17.3,17.3,81,0.00,OVC,,0.00,WeatherDisplay:10.37,2013-03-05 01:23:00,
2013-03-04 20:28:00,21.3,16.3,29.82,NW,315,12.7,12.7,81,0.00,OVC,,0.00,WeatherDisplay:10.37,2013-03-05 01:28:00,
2013-03-04 20:33:00,21.3,16.3,29.82,NNW,338,12.7,12.7,81,0.00,OVC,,0.00,WeatherDisplay:10.37,2013-03-05 01:33:00,
2013-03-04 20:38:00,21.2,16.3,29.82,NW,315,11.5,11.5,81,0.00,OVC,,0.00,WeatherDisplay:10.37,2013-03-05 01:38:00,
2013-03-04 20:44:00,21.4,16.4,29.82,NNW,338,15.0,15.0,81,0.00,OVC,,0.00,WeatherDisplay:10.37,2013-03-05 01:44:00,
2013-03-04 20:49:00,21.1,16.2,29.82,West,270,21.9,21.9,81,0.00,OVC,,0.00,WeatherDisplay:10.37,2013-03-05 01:49:00,
2013-03-04 20:54:00,21.4,16.4,29.82,North,360,10.4,10.4,81,0.00,OVC,,0.00,WeatherDisplay:10.37,2013-03-05 01:54:00,
2013-03-04 20:59:00,21.4,16.4,29.82,ENE,68,13.8,13.8,81,0.00,OVC,,0.00,WeatherDisplay:10.37,2013-03-05 01:59:00,
2013-03-04 21:04:00,21.4,16.5,29.84,NW,315,12.7,12.7,81,0.00,OVC,,0.00,WeatherDisplay:10.37,2013-03-05 02:04:00,
2013-03-04 21:09:00,21.4,16.5,29.84,North,360,13.8,13.8,81,0.00,OVC,,0.00,WeatherDisplay:10.37,2013-03-05 02:09:00,
2013-03-04 21:14:00,21.3,16.3,29.84,NW,315,10.4,10.4,81,0.00,OVC,,0.00,WeatherDisplay:10.37,2013-03-05 02:14:00,
2013-03-04 21:20:00,21.1,16.2,29.84,WNW,292,17.3,17.3,81,0.00,OVC,,0.00,WeatherDisplay:10.37,2013-03-05 02:20:00,
2013-03-04 21:25:00,21.3,15.8,29.84,NNW,338,11.5,11.5,79,0.00,OVC,,0.00,WeatherDisplay:10.37,2013-03-05 02:25:00,
2013-03-04 21:30:00,21.0,16.1,29.84,NW,315,16.1,16.1,81,0.00,OVC,,0.00,WeatherDisplay:10.37,2013-03-05 02:30:00,
2013-03-04 21:35:00,21.2,16.3,29.84,WNW,292,10.6,10.6,81,0.00,OVC,,0.00,WeatherDisplay:10.37,2013-03-05 02:35:00,
2013-03-04 21:41:00,21.1,16.2,29.84,North,360,15.0,15.0,81,0.00,OVC,,0.00,WeatherDisplay:10.37,2013-03-05 02:41:00,
2013-03-04 21:46:00,21.1,16.2,29.84,NNW,338,15.0,15.0,81,0.00,OVC,,0.00,WeatherDisplay:10.37,2013-03-05 02:46:00,
2013-03-04 21:51:00,21.3,16.4,29.84,NNW,338,13.8,13.8,81,0.00,OVC,,0.00,WeatherDisplay:10.37,2013-03-05 02:51:00,
2013-03-04 21:56:00,21.1,16.2,29.84,ENE,68,10.4,10.4,81,0.00,OVC,,0.00,WeatherDisplay:10.37,2013-03-05 02:56:00,
2013-03-04 22:02:00,21.0,16.1,29.84,NNW,338,9.2,9.2,81,0.00,OVC,,0.00,WeatherDisplay:10.37,2013-03-05 03:02:00,
2013-03-04 22:07:00,21.1,16.2,29.84,NW,315,13.8,13.8,81,0.00,OVC,,0.00,WeatherDisplay:10.37,2013-03-05 03:07:00,
2013-03-04 22:12:00,21.2,16.3,29.84,NNW,338,15.0,15.0,81,0.00,OVC,,0.00,WeatherDisplay:10.37,2013-03-05 03:12:00,
2013-03-04 22:17:00,21.1,16.2,29.84,North,360,11.5,11.5,81,0.00,OVC,,0.00,WeatherDisplay:10.37,2013-03-05 03:17:00,
2013-03-04 22:22:00,21.1,16.2,29.84,WNW,292,11.5,11.5,81,0.00,OVC,,0.00,WeatherDisplay:10.37,2013-03-05 03:22:00,
2013-03-04 22:28:00,21.0,16.1,29.84,NNE,22,9.2,9.2,81,0.00,OVC,,0.00,WeatherDisplay:10.37,2013-03-05 03:28:00,
2013-03-04 22:33:00,21.0,16.1,29.84,NW,315,9.2,9.2,81,0.00,OVC,,0.00,WeatherDisplay:10.37,2013-03-05 03:33:00,
2013-03-04 22:39:00,21.1,16.2,29.84,NW,315,12.7,12.7,81,0.00,OVC,,0.00,WeatherDisplay:10.37,2013-03-05 03:39:00,
2013-03-04 22:44:00,21.2,16.3,29.84,NW,315,11.5,11.5,81,0.00,OVC,,0.00,WeatherDisplay:10.37,2013-03-05 03:44:00,
2013-03-04 22:49:00,21.1,16.2,29.84,NW,315,10.4,10.4,81,0.00,OVC,,0.00,WeatherDisplay:10.37,2013-03-05 03:49:00,
2013-03-04 22:55:00,21.3,15.8,29.84,East,90,6.9,6.9,79,0.00,OVC,,0.00,WeatherDisplay:10.37,2013-03-05 03:55:00,
2013-03-04 23:00:00,21.1,16.2,29.84,NNW,338,12.7,12.7,81,0.00,OVC,,0.00,WeatherDisplay:10.37,2013-03-05 04:00:00,
2013-03-04 23:05:00,21.1,16.2,29.85,NW,315,9.2,9.2,81,0.00,OVC,,0.00,WeatherDisplay:10.37,2013-03-05 04:05:00,
2013-03-04 23:11:00,21.1,16.2,29.85,NW,315,10.4,10.4,81,0.00,OVC,,0.00,WeatherDisplay:10.37,2013-03-05 04:11:00,
2013-03-04 23:16:00,21.0,16.1,29.85,WNW,292,4.6,4.6,81,0.00,OVC,,0.00,WeatherDisplay:10.37,2013-03-05 04:16:00,
2013-03-04 23:22:00,21.3,16.3,29.85,NNW,338,9.2,9.2,81,0.00,OVC,,0.00,WeatherDisplay:10.37,2013-03-05 04:22:00,
2013-03-04 23:27:00,21.2,16.3,29.85,NW,315,6.9,6.9,81,0.00,OVC,,0.00,WeatherDisplay:10.37,2013-03-05 04:27:00,
2013-03-04 23:32:00,21.2,16.3,29.85,WNW,292,9.2,9.2,81,0.00,OVC,,0.00,WeatherDisplay:10.37,2013-03-05 04:32:00,
2013-03-04 23:38:00,21.3,16.3,29.85,WNW,292,10.4,10.4,81,0.00,OVC,,0.00,WeatherDisplay:10.37,2013-03-05 04:38:00,
2013-03-04 23:44:00,21.2,16.3,29.85,NW,315,11.5,11.5,81,0.00,OVC,,0.00,WeatherDisplay:10.37,2013-03-05 04:44:00,
2013-03-04 23:49:00,21.1,16.2,29.85,NW,315,10.4,10.4,81,0.00,OVC,,0.00,WeatherDisplay:10.37,2013-03-05 04:49:00,
2013-03-04 23:54:00,21.1,16.2,29.85,NNW,338,9.2,9.2,81,0.00,OVC,,0.00,WeatherDisplay:10.37,2013-03-05 04:54:00,
2013-03-04 23:59:00,21.3,16.3,29.85,NNW,338,10.4,10.4,81,0.00,OVC,,0.00,WeatherDisplay:10.37,2013-03-05 04:59:00,